sensor_id;sensor_type;location;lat;lon;timestamp;P1;durP1;ratioP1;P2;durP2;ratioP2
6667;SDS011;3370;47.712;9.082;2023-10-09T00:02:07;17.10;;;7.10;;
6667;SDS011;3370;47.712;9.082;2023-10-09T00:04:35;22.20;;;7.30;;
6667;SDS011;3370;47.712;9.082;2023-10-09T00:07:05;13.27;;;6.90;;
6667;SDS011;3370;47.712;9.082;2023-10-09T00:09:35;19.07;;;7.73;;
6667;SDS011;3370;47.712;9.082;2023-10-09T00:12:12;13.93;;;6.50;;
6667;SDS011;3370;47.712;9.082;2023-10-09T00:14:42;13.97;;;6.30;;
6667;SDS011;3370;47.712;9.082;2023-10-09T00:17:13;18.07;;;7.10;;
6667;SDS011;3370;47.712;9.082;2023-10-09T00:19:40;15.07;;;6.37;;
6667;SDS011;3370;47.712;9.082;2023-10-09T00:22:08;14.80;;;6.67;;
6667;SDS011;3370;47.712;9.082;2023-10-09T00:24:50;13.70;;;6.63;;
6667;SDS011;3370;47.712;9.082;2023-10-09T00:27:36;17.50;;;6.93;;
6667;SDS011;3370;47.712;9.082;2023-10-09T00:30:14;15.23;;;6.40;;
6667;SDS011;3370;47.712;9.082;2023-10-09T00:32:46;12.07;;;6.10;;
6667;SDS011;3370;47.712;9.082;2023-10-09T00:35:26;10.33;;;5.97;;
6667;SDS011;3370;47.712;9.082;2023-10-09T00:38:02;18.17;;;6.90;;
6667;SDS011;3370;47.712;9.082;2023-10-09T00:40:39;18.13;;;6.97;;
6667;SDS011;3370;47.712;9.082;2023-10-09T00:43:10;14.87;;;7.00;;
6667;SDS011;3370;47.712;9.082;2023-10-09T00:45:38;13.93;;;6.40;;
6667;SDS011;3370;47.712;9.082;2023-10-09T00:48:06;18.27;;;7.77;;
6667;SDS011;3370;47.712;9.082;2023-10-09T00:50:33;14.00;;;7.10;;
6667;SDS011;3370;47.712;9.082;2023-10-09T00:53:01;13.23;;;6.03;;
6667;SDS011;3370;47.712;9.082;2023-10-09T00:55:37;10.57;;;6.27;;
6667;SDS011;3370;47.712;9.082;2023-10-09T00:58:04;20.53;;;7.67;;
6667;SDS011;3370;47.712;9.082;2023-10-09T01:00:37;11.60;;;6.17;;
6667;SDS011;3370;47.712;9.082;2023-10-09T01:03:15;9.97;;;6.10;;
6667;SDS011;3370;47.712;9.082;2023-10-09T01:05:51;13.43;;;6.83;;
6667;SDS011;3370;47.712;9.082;2023-10-09T01:08:28;14.57;;;6.43;;
6667;SDS011;3370;47.712;9.082;2023-10-09T01:10:54;13.80;;;6.73;;
6667;SDS011;3370;47.712;9.082;2023-10-09T01:13:33;14.13;;;6.57;;
6667;SDS011;3370;47.712;9.082;2023-10-09T01:16:15;11.53;;;6.87;;
6667;SDS011;3370;47.712;9.082;2023-10-09T01:18:46;9.93;;;5.90;;
6667;SDS011;3370;47.712;9.082;2023-10-09T01:21:16;15.23;;;6.57;;
6667;SDS011;3370;47.712;9.082;2023-10-09T01:23:48;17.97;;;6.93;;
6667;SDS011;3370;47.712;9.082;2023-10-09T01:26:44;15.63;;;7.53;;
6667;SDS011;3370;47.712;9.082;2023-10-09T01:31:52;14.20;;;6.50;;
6667;SDS011;3370;47.712;9.082;2023-10-09T01:34:32;20.37;;;7.20;;
6667;SDS011;3370;47.712;9.082;2023-10-09T01:37:01;13.50;;;7.40;;
6667;SDS011;3370;47.712;9.082;2023-10-09T01:39:30;16.40;;;6.83;;
6667;SDS011;3370;47.712;9.082;2023-10-09T01:41:56;12.87;;;7.40;;
6667;SDS011;3370;47.712;9.082;2023-10-09T01:44:29;12.63;;;6.70;;
6667;SDS011;3370;47.712;9.082;2023-10-09T01:46:55;16.30;;;7.27;;
6667;SDS011;3370;47.712;9.082;2023-10-09T01:49:23;14.77;;;7.60;;
6667;SDS011;3370;47.712;9.082;2023-10-09T01:51:56;16.97;;;6.90;;
6667;SDS011;3370;47.712;9.082;2023-10-09T01:54:33;15.77;;;7.83;;
6667;SDS011;3370;47.712;9.082;2023-10-09T01:57:09;12.70;;;6.93;;
6667;SDS011;3370;47.712;9.082;2023-10-09T01:59:41;16.10;;;7.70;;
6667;SDS011;3370;47.712;9.082;2023-10-09T02:02:29;18.83;;;8.07;;
6667;SDS011;3370;47.712;9.082;2023-10-09T02:05:08;16.03;;;8.17;;
6667;SDS011;3370;47.712;9.082;2023-10-09T02:07:36;15.93;;;6.57;;
6667;SDS011;3370;47.712;9.082;2023-10-09T02:10:09;16.00;;;6.80;;
6667;SDS011;3370;47.712;9.082;2023-10-09T02:13:02;13.70;;;7.50;;
6667;SDS011;3370;47.712;9.082;2023-10-09T02:15:35;12.50;;;7.23;;
6667;SDS011;3370;47.712;9.082;2023-10-09T02:18:09;12.43;;;6.87;;
6667;SDS011;3370;47.712;9.082;2023-10-09T02:20:43;18.03;;;7.27;;
6667;SDS011;3370;47.712;9.082;2023-10-09T02:23:40;12.73;;;7.27;;
6667;SDS011;3370;47.712;9.082;2023-10-09T02:26:09;10.83;;;6.60;;
6667;SDS011;3370;47.712;9.082;2023-10-09T02:28:59;11.60;;;7.10;;
6667;SDS011;3370;47.712;9.082;2023-10-09T02:31:29;18.50;;;7.17;;
6667;SDS011;3370;47.712;9.082;2023-10-09T02:34:01;14.90;;;8.07;;
6667;SDS011;3370;47.712;9.082;2023-10-09T02:36:30;19.43;;;7.27;;
6667;SDS011;3370;47.712;9.082;2023-10-09T02:38:56;19.63;;;7.30;;
6667;SDS011;3370;47.712;9.082;2023-10-09T02:41:22;15.80;;;6.77;;
6667;SDS011;3370;47.712;9.082;2023-10-09T02:43:48;12.00;;;7.10;;
6667;SDS011;3370;47.712;9.082;2023-10-09T02:46:20;12.63;;;7.03;;
6667;SDS011;3370;47.712;9.082;2023-10-09T02:48:54;14.70;;;6.90;;
6667;SDS011;3370;47.712;9.082;2023-10-09T02:51:23;16.10;;;7.27;;
6667;SDS011;3370;47.712;9.082;2023-10-09T02:53:53;14.17;;;7.67;;
6667;SDS011;3370;47.712;9.082;2023-10-09T02:56:26;12.30;;;6.73;;
6667;SDS011;3370;47.712;9.082;2023-10-09T02:59:12;16.53;;;7.17;;
6667;SDS011;3370;47.712;9.082;2023-10-09T03:01:39;19.17;;;7.37;;
6667;SDS011;3370;47.712;9.082;2023-10-09T03:04:06;12.63;;;6.80;;
6667;SDS011;3370;47.712;9.082;2023-10-09T03:06:36;14.10;;;7.20;;
6667;SDS011;3370;47.712;9.082;2023-10-09T03:09:08;20.63;;;9.07;;
6667;SDS011;3370;47.712;9.082;2023-10-09T03:11:51;15.93;;;7.97;;
6667;SDS011;3370;47.712;9.082;2023-10-09T03:14:19;16.63;;;6.90;;
6667;SDS011;3370;47.712;9.082;2023-10-09T03:16:55;11.37;;;7.43;;
6667;SDS011;3370;47.712;9.082;2023-10-09T03:19:21;13.10;;;6.20;;
6667;SDS011;3370;47.712;9.082;2023-10-09T03:21:50;18.40;;;7.53;;
6667;SDS011;3370;47.712;9.082;2023-10-09T03:24:16;15.47;;;6.90;;
6667;SDS011;3370;47.712;9.082;2023-10-09T03:26:43;11.67;;;6.53;;
6667;SDS011;3370;47.712;9.082;2023-10-09T03:29:12;15.10;;;8.37;;
6667;SDS011;3370;47.712;9.082;2023-10-09T03:31:37;10.70;;;6.83;;
6667;SDS011;3370;47.712;9.082;2023-10-09T03:34:06;12.83;;;6.70;;
6667;SDS011;3370;47.712;9.082;2023-10-09T03:36:35;13.70;;;7.27;;
6667;SDS011;3370;47.712;9.082;2023-10-09T03:39:04;19.57;;;7.23;;
6667;SDS011;3370;47.712;9.082;2023-10-09T03:41:55;13.50;;;7.43;;
6667;SDS011;3370;47.712;9.082;2023-10-09T03:44:23;20.77;;;8.37;;
6667;SDS011;3370;47.712;9.082;2023-10-09T03:46:55;16.30;;;7.57;;
6667;SDS011;3370;47.712;9.082;2023-10-09T03:49:21;16.10;;;8.43;;
6667;SDS011;3370;47.712;9.082;2023-10-09T03:51:51;13.80;;;7.63;;
6667;SDS011;3370;47.712;9.082;2023-10-09T03:54:17;17.57;;;7.27;;
6667;SDS011;3370;47.712;9.082;2023-10-09T03:56:48;16.43;;;7.00;;
6667;SDS011;3370;47.712;9.082;2023-10-09T03:59:15;17.60;;;7.37;;
6667;SDS011;3370;47.712;9.082;2023-10-09T04:01:45;12.90;;;7.63;;
6667;SDS011;3370;47.712;9.082;2023-10-09T04:04:13;16.87;;;8.27;;
6667;SDS011;3370;47.712;9.082;2023-10-09T04:06:40;16.77;;;7.77;;
6667;SDS011;3370;47.712;9.082;2023-10-09T04:09:06;14.40;;;7.43;;
6667;SDS011;3370;47.712;9.082;2023-10-09T04:11:43;20.10;;;8.90;;
6667;SDS011;3370;47.712;9.082;2023-10-09T04:14:42;12.93;;;7.60;;
6667;SDS011;3370;47.712;9.082;2023-10-09T04:17:22;18.37;;;7.17;;
6667;SDS011;3370;47.712;9.082;2023-10-09T04:20:08;21.43;;;8.17;;
6667;SDS011;3370;47.712;9.082;2023-10-09T04:22:43;23.63;;;8.37;;
6667;SDS011;3370;47.712;9.082;2023-10-09T04:25:27;17.30;;;7.80;;
6667;SDS011;3370;47.712;9.082;2023-10-09T04:27:55;11.63;;;6.70;;
6667;SDS011;3370;47.712;9.082;2023-10-09T04:30:34;21.83;;;8.40;;
6667;SDS011;3370;47.712;9.082;2023-10-09T04:33:12;22.27;;;8.60;;
6667;SDS011;3370;47.712;9.082;2023-10-09T04:36:12;15.90;;;7.70;;
6667;SDS011;3370;47.712;9.082;2023-10-09T04:38:46;15.00;;;8.40;;
6667;SDS011;3370;47.712;9.082;2023-10-09T04:41:29;22.97;;;8.93;;
6667;SDS011;3370;47.712;9.082;2023-10-09T04:44:19;15.90;;;8.97;;
6667;SDS011;3370;47.712;9.082;2023-10-09T04:46:48;14.57;;;8.97;;
6667;SDS011;3370;47.712;9.082;2023-10-09T04:49:34;22.03;;;8.70;;
6667;SDS011;3370;47.712;9.082;2023-10-09T04:52:17;20.53;;;8.50;;
6667;SDS011;3370;47.712;9.082;2023-10-09T04:55:04;20.70;;;7.70;;
6667;SDS011;3370;47.712;9.082;2023-10-09T05:00:07;15.40;;;8.00;;
6667;SDS011;3370;47.712;9.082;2023-10-09T05:02:58;15.10;;;8.40;;
6667;SDS011;3370;47.712;9.082;2023-10-09T05:05:38;16.60;;;7.77;;
6667;SDS011;3370;47.712;9.082;2023-10-09T05:08:08;24.00;;;8.87;;
6667;SDS011;3370;47.712;9.082;2023-10-09T05:10:49;14.43;;;7.60;;
6667;SDS011;3370;47.712;9.082;2023-10-09T05:13:31;15.00;;;8.13;;
6667;SDS011;3370;47.712;9.082;2023-10-09T05:18:38;13.10;;;8.30;;
6667;SDS011;3370;47.712;9.082;2023-10-09T05:21:04;17.53;;;9.53;;
6667;SDS011;3370;47.712;9.082;2023-10-09T05:23:51;21.23;;;8.37;;
6667;SDS011;3370;47.712;9.082;2023-10-09T05:26:35;29.33;;;9.30;;
6667;SDS011;3370;47.712;9.082;2023-10-09T05:29:11;19.83;;;8.50;;
6667;SDS011;3370;47.712;9.082;2023-10-09T05:31:56;21.13;;;9.00;;
6667;SDS011;3370;47.712;9.082;2023-10-09T05:34:25;25.87;;;9.10;;
6667;SDS011;3370;47.712;9.082;2023-10-09T05:37:10;21.30;;;9.43;;
6667;SDS011;3370;47.712;9.082;2023-10-09T05:39:53;18.20;;;8.30;;
6667;SDS011;3370;47.712;9.082;2023-10-09T05:42:29;19.10;;;8.40;;
6667;SDS011;3370;47.712;9.082;2023-10-09T05:45:02;22.17;;;9.50;;
6667;SDS011;3370;47.712;9.082;2023-10-09T05:47:48;27.30;;;9.60;;
6667;SDS011;3370;47.712;9.082;2023-10-09T05:50:22;18.83;;;8.33;;
6667;SDS011;3370;47.712;9.082;2023-10-09T05:52:52;17.30;;;8.63;;
6667;SDS011;3370;47.712;9.082;2023-10-09T05:55:51;23.10;;;9.47;;
6667;SDS011;3370;47.712;9.082;2023-10-09T05:58:36;24.77;;;9.20;;
6667;SDS011;3370;47.712;9.082;2023-10-09T06:01:27;38.53;;;9.50;;
6667;SDS011;3370;47.712;9.082;2023-10-09T06:04:12;24.23;;;9.27;;
6667;SDS011;3370;47.712;9.082;2023-10-09T06:06:40;17.67;;;9.13;;
6667;SDS011;3370;47.712;9.082;2023-10-09T06:09:11;15.83;;;9.53;;
6667;SDS011;3370;47.712;9.082;2023-10-09T06:11:38;18.70;;;9.10;;
6667;SDS011;3370;47.712;9.082;2023-10-09T06:14:17;21.67;;;9.67;;
6667;SDS011;3370;47.712;9.082;2023-10-09T06:17:11;25.20;;;9.80;;
6667;SDS011;3370;47.712;9.082;2023-10-09T06:20:03;25.43;;;11.10;;
6667;SDS011;3370;47.712;9.082;2023-10-09T06:22:50;23.47;;;10.40;;
6667;SDS011;3370;47.712;9.082;2023-10-09T06:25:40;18.87;;;8.70;;
6667;SDS011;3370;47.712;9.082;2023-10-09T06:28:16;20.20;;;10.27;;
6667;SDS011;3370;47.712;9.082;2023-10-09T06:30:44;25.60;;;10.17;;
6667;SDS011;3370;47.712;9.082;2023-10-09T06:33:12;21.30;;;10.20;;
6667;SDS011;3370;47.712;9.082;2023-10-09T06:35:54;16.67;;;10.43;;
6667;SDS011;3370;47.712;9.082;2023-10-09T06:38:20;25.03;;;11.40;;
6667;SDS011;3370;47.712;9.082;2023-10-09T06:40:47;18.07;;;10.53;;
6667;SDS011;3370;47.712;9.082;2023-10-09T06:43:17;28.20;;;10.30;;
6667;SDS011;3370;47.712;9.082;2023-10-09T06:45:50;16.60;;;10.13;;
6667;SDS011;3370;47.712;9.082;2023-10-09T06:48:23;19.20;;;10.20;;
6667;SDS011;3370;47.712;9.082;2023-10-09T06:51:02;26.03;;;9.90;;
6667;SDS011;3370;47.712;9.082;2023-10-09T06:53:33;22.30;;;9.83;;
6667;SDS011;3370;47.712;9.082;2023-10-09T06:56:17;24.57;;;9.73;;
6667;SDS011;3370;47.712;9.082;2023-10-09T06:59:03;28.80;;;10.57;;
6667;SDS011;3370;47.712;9.082;2023-10-09T07:01:49;29.90;;;11.13;;
6667;SDS011;3370;47.712;9.082;2023-10-09T07:04:34;25.93;;;10.00;;
6667;SDS011;3370;47.712;9.082;2023-10-09T07:07:01;19.73;;;9.80;;
6667;SDS011;3370;47.712;9.082;2023-10-09T07:09:32;23.13;;;10.50;;
6667;SDS011;3370;47.712;9.082;2023-10-09T07:12:10;23.60;;;11.30;;
6667;SDS011;3370;47.712;9.082;2023-10-09T07:14:45;26.20;;;11.43;;
6667;SDS011;3370;47.712;9.082;2023-10-09T07:17:11;20.20;;;10.60;;
6667;SDS011;3370;47.712;9.082;2023-10-09T07:19:56;25.60;;;10.73;;
6667;SDS011;3370;47.712;9.082;2023-10-09T07:22:37;19.67;;;10.20;;
6667;SDS011;3370;47.712;9.082;2023-10-09T07:25:18;22.47;;;11.20;;
6667;SDS011;3370;47.712;9.082;2023-10-09T07:28:03;30.90;;;12.87;;
6667;SDS011;3370;47.712;9.082;2023-10-09T07:30:43;28.83;;;12.20;;
6667;SDS011;3370;47.712;9.082;2023-10-09T07:33:12;22.33;;;9.67;;
6667;SDS011;3370;47.712;9.082;2023-10-09T07:40:53;26.00;;;10.23;;
6667;SDS011;3370;47.712;9.082;2023-10-09T07:43:24;24.03;;;11.57;;
6667;SDS011;3370;47.712;9.082;2023-10-09T07:46:10;21.67;;;10.00;;
6667;SDS011;3370;47.712;9.082;2023-10-09T07:49:17;24.33;;;9.73;;
6667;SDS011;3370;47.712;9.082;2023-10-09T07:51:53;34.20;;;11.43;;
6667;SDS011;3370;47.712;9.082;2023-10-09T07:54:19;25.97;;;10.03;;
6667;SDS011;3370;47.712;9.082;2023-10-09T07:57:01;24.73;;;11.10;;
6667;SDS011;3370;47.712;9.082;2023-10-09T07:59:41;24.17;;;9.23;;
6667;SDS011;3370;47.712;9.082;2023-10-09T08:02:19;22.53;;;8.97;;
6667;SDS011;3370;47.712;9.082;2023-10-09T08:04:57;20.13;;;8.77;;
6667;SDS011;3370;47.712;9.082;2023-10-09T08:07:43;23.07;;;8.77;;
6667;SDS011;3370;47.712;9.082;2023-10-09T08:10:20;19.80;;;8.57;;
6667;SDS011;3370;47.712;9.082;2023-10-09T08:12:46;31.10;;;9.83;;
6667;SDS011;3370;47.712;9.082;2023-10-09T08:15:15;23.27;;;8.80;;
6667;SDS011;3370;47.712;9.082;2023-10-09T08:17:48;25.00;;;8.83;;
6667;SDS011;3370;47.712;9.082;2023-10-09T08:20:24;13.73;;;7.63;;
6667;SDS011;3370;47.712;9.082;2023-10-09T08:22:52;27.10;;;8.00;;
6667;SDS011;3370;47.712;9.082;2023-10-09T08:25:22;22.10;;;7.50;;
6667;SDS011;3370;47.712;9.082;2023-10-09T08:27:55;15.83;;;7.37;;
6667;SDS011;3370;47.712;9.082;2023-10-09T08:30:24;26.03;;;7.00;;
6667;SDS011;3370;47.712;9.082;2023-10-09T08:32:51;14.47;;;6.67;;
6667;SDS011;3370;47.712;9.082;2023-10-09T08:35:36;17.33;;;6.87;;
6667;SDS011;3370;47.712;9.082;2023-10-09T08:38:14;29.07;;;7.37;;
6667;SDS011;3370;47.712;9.082;2023-10-09T08:40:48;23.03;;;7.90;;
6667;SDS011;3370;47.712;9.082;2023-10-09T08:45:49;21.97;;;5.77;;
6667;SDS011;3370;47.712;9.082;2023-10-09T08:48:26;34.93;;;6.37;;
6667;SDS011;3370;47.712;9.082;2023-10-09T08:50:53;21.90;;;6.00;;
6667;SDS011;3370;47.712;9.082;2023-10-09T08:53:20;16.73;;;6.93;;
6667;SDS011;3370;47.712;9.082;2023-10-09T08:55:52;24.43;;;5.83;;
6667;SDS011;3370;47.712;9.082;2023-10-09T08:58:18;18.83;;;7.43;;
6667;SDS011;3370;47.712;9.082;2023-10-09T09:00:46;25.30;;;7.23;;
6667;SDS011;3370;47.712;9.082;2023-10-09T09:03:14;25.27;;;6.23;;
6667;SDS011;3370;47.712;9.082;2023-10-09T09:05:48;28.23;;;6.70;;
6667;SDS011;3370;47.712;9.082;2023-10-09T09:08:28;17.10;;;6.80;;
6667;SDS011;3370;47.712;9.082;2023-10-09T09:11:08;14.30;;;5.97;;
6667;SDS011;3370;47.712;9.082;2023-10-09T09:13:48;16.20;;;5.90;;
6667;SDS011;3370;47.712;9.082;2023-10-09T09:16:33;27.50;;;5.97;;
6667;SDS011;3370;47.712;9.082;2023-10-09T09:19:06;19.23;;;5.77;;
6667;SDS011;3370;47.712;9.082;2023-10-09T09:21:36;17.33;;;5.97;;
6667;SDS011;3370;47.712;9.082;2023-10-09T09:24:05;26.10;;;5.93;;
6667;SDS011;3370;47.712;9.082;2023-10-09T09:27:03;16.60;;;5.57;;
6667;SDS011;3370;47.712;9.082;2023-10-09T09:29:43;17.20;;;5.23;;
6667;SDS011;3370;47.712;9.082;2023-10-09T09:32:18;22.83;;;6.10;;
6667;SDS011;3370;47.712;9.082;2023-10-09T09:35:03;18.37;;;5.27;;
6667;SDS011;3370;47.712;9.082;2023-10-09T09:37:42;20.47;;;7.13;;
6667;SDS011;3370;47.712;9.082;2023-10-09T09:40:20;20.43;;;5.43;;
6667;SDS011;3370;47.712;9.082;2023-10-09T09:42:56;21.93;;;5.50;;
6667;SDS011;3370;47.712;9.082;2023-10-09T09:45:30;24.57;;;6.13;;
6667;SDS011;3370;47.712;9.082;2023-10-09T09:48:03;21.50;;;5.60;;
6667;SDS011;3370;47.712;9.082;2023-10-09T09:50:31;25.27;;;5.37;;
6667;SDS011;3370;47.712;9.082;2023-10-09T09:52:58;18.73;;;6.60;;
6667;SDS011;3370;47.712;9.082;2023-10-09T09:56:07;19.73;;;6.77;;
6667;SDS011;3370;47.712;9.082;2023-10-09T09:58:22;25.53;;;5.73;;
6667;SDS011;3370;47.712;9.082;2023-10-09T10:01:07;19.90;;;5.67;;
6667;SDS011;3370;47.712;9.082;2023-10-09T10:03:49;18.77;;;6.23;;
6667;SDS011;3370;47.712;9.082;2023-10-09T10:06:23;14.77;;;5.47;;
6667;SDS011;3370;47.712;9.082;2023-10-09T10:08:53;12.60;;;5.43;;
6667;SDS011;3370;47.712;9.082;2023-10-09T10:14:14;17.77;;;5.80;;
6667;SDS011;3370;47.712;9.082;2023-10-09T10:22:29;19.30;;;5.90;;
6667;SDS011;3370;47.712;9.082;2023-10-09T10:24:58;21.07;;;5.30;;
6667;SDS011;3370;47.712;9.082;2023-10-09T10:27:28;17.27;;;5.53;;
6667;SDS011;3370;47.712;9.082;2023-10-09T10:32:54;22.23;;;6.87;;
6667;SDS011;3370;47.712;9.082;2023-10-09T10:35:24;24.40;;;6.40;;
6667;SDS011;3370;47.712;9.082;2023-10-09T10:38:26;20.27;;;5.93;;
6667;SDS011;3370;47.712;9.082;2023-10-09T10:43:45;19.47;;;4.90;;
6667;SDS011;3370;47.712;9.082;2023-10-09T10:46:18;23.70;;;5.10;;
6667;SDS011;3370;47.712;9.082;2023-10-09T10:49:10;21.60;;;5.27;;
6667;SDS011;3370;47.712;9.082;2023-10-09T10:51:37;18.87;;;4.90;;
6667;SDS011;3370;47.712;9.082;2023-10-09T10:54:04;17.60;;;5.20;;
6667;SDS011;3370;47.712;9.082;2023-10-09T10:56:52;20.10;;;5.93;;
6667;SDS011;3370;47.712;9.082;2023-10-09T10:59:22;20.67;;;5.33;;
6667;SDS011;3370;47.712;9.082;2023-10-09T11:01:52;24.20;;;5.20;;
6667;SDS011;3370;47.712;9.082;2023-10-09T11:04:22;22.67;;;5.93;;
6667;SDS011;3370;47.712;9.082;2023-10-09T11:06:57;20.70;;;5.77;;
6667;SDS011;3370;47.712;9.082;2023-10-09T11:09:53;19.00;;;5.40;;
6667;SDS011;3370;47.712;9.082;2023-10-09T11:12:29;19.07;;;4.47;;
6667;SDS011;3370;47.712;9.082;2023-10-09T11:15:39;16.80;;;5.13;;
6667;SDS011;3370;47.712;9.082;2023-10-09T11:18:21;14.87;;;5.03;;
6667;SDS011;3370;47.712;9.082;2023-10-09T11:20:55;14.27;;;4.53;;
6667;SDS011;3370;47.712;9.082;2023-10-09T11:23:28;19.70;;;4.60;;
6667;SDS011;3370;47.712;9.082;2023-10-09T11:26:01;23.07;;;5.20;;
6667;SDS011;3370;47.712;9.082;2023-10-09T11:32:04;18.60;;;6.23;;
6667;SDS011;3370;47.712;9.082;2023-10-09T11:34:33;27.40;;;5.70;;
6667;SDS011;3370;47.712;9.082;2023-10-09T11:39:35;17.50;;;5.07;;
6667;SDS011;3370;47.712;9.082;2023-10-09T11:42:06;16.73;;;5.60;;
6667;SDS011;3370;47.712;9.082;2023-10-09T11:47:06;18.90;;;5.30;;
6667;SDS011;3370;47.712;9.082;2023-10-09T11:49:57;19.53;;;4.47;;
6667;SDS011;3370;47.712;9.082;2023-10-09T11:52:27;20.20;;;4.70;;
6667;SDS011;3370;47.712;9.082;2023-10-09T11:54:56;21.90;;;6.07;;
6667;SDS011;3370;47.712;9.082;2023-10-09T11:57:26;15.73;;;5.40;;
6667;SDS011;3370;47.712;9.082;2023-10-09T11:59:59;24.03;;;5.83;;
6667;SDS011;3370;47.712;9.082;2023-10-09T12:02:30;16.17;;;5.53;;
6667;SDS011;3370;47.712;9.082;2023-10-09T12:04:56;24.37;;;6.77;;
6667;SDS011;3370;47.712;9.082;2023-10-09T12:07:23;28.27;;;5.50;;
6667;SDS011;3370;47.712;9.082;2023-10-09T12:09:50;17.17;;;5.63;;
6667;SDS011;3370;47.712;9.082;2023-10-09T12:12:21;27.43;;;5.70;;
6667;SDS011;3370;47.712;9.082;2023-10-09T12:14:51;30.40;;;5.57;;
6667;SDS011;3370;47.712;9.082;2023-10-09T12:17:18;13.90;;;5.87;;
6667;SDS011;3370;47.712;9.082;2023-10-09T12:19:44;24.20;;;5.83;;
6667;SDS011;3370;47.712;9.082;2023-10-09T12:22:09;14.00;;;4.90;;
6667;SDS011;3370;47.712;9.082;2023-10-09T12:24:41;19.97;;;5.10;;
6667;SDS011;3370;47.712;9.082;2023-10-09T12:27:08;22.67;;;6.20;;
6667;SDS011;3370;47.712;9.082;2023-10-09T12:29:36;17.93;;;6.23;;
6667;SDS011;3370;47.712;9.082;2023-10-09T12:32:02;20.40;;;5.93;;
6667;SDS011;3370;47.712;9.082;2023-10-09T12:34:30;17.23;;;5.83;;
6667;SDS011;3370;47.712;9.082;2023-10-09T12:36:56;16.20;;;5.20;;
6667;SDS011;3370;47.712;9.082;2023-10-09T12:39:32;14.63;;;5.83;;
6667;SDS011;3370;47.712;9.082;2023-10-09T12:42:05;20.27;;;5.67;;
6667;SDS011;3370;47.712;9.082;2023-10-09T12:44:37;13.90;;;4.83;;
6667;SDS011;3370;47.712;9.082;2023-10-09T12:47:05;23.60;;;5.70;;
6667;SDS011;3370;47.712;9.082;2023-10-09T12:49:31;19.73;;;4.77;;
6667;SDS011;3370;47.712;9.082;2023-10-09T12:51:57;22.87;;;5.77;;
6667;SDS011;3370;47.712;9.082;2023-10-09T12:54:27;16.20;;;4.40;;
6667;SDS011;3370;47.712;9.082;2023-10-09T12:56:56;22.03;;;5.77;;
6667;SDS011;3370;47.712;9.082;2023-10-09T12:59:23;14.53;;;5.30;;
6667;SDS011;3370;47.712;9.082;2023-10-09T13:01:49;20.67;;;5.03;;
6667;SDS011;3370;47.712;9.082;2023-10-09T13:04:22;23.20;;;5.60;;
6667;SDS011;3370;47.712;9.082;2023-10-09T13:06:48;23.43;;;5.33;;
6667;SDS011;3370;47.712;9.082;2023-10-09T13:09:17;18.33;;;5.60;;
6667;SDS011;3370;47.712;9.082;2023-10-09T13:11:58;17.20;;;5.00;;
6667;SDS011;3370;47.712;9.082;2023-10-09T13:14:25;15.80;;;5.13;;
6667;SDS011;3370;47.712;9.082;2023-10-09T13:16:52;22.50;;;5.97;;
6667;SDS011;3370;47.712;9.082;2023-10-09T13:19:18;16.43;;;5.10;;
6667;SDS011;3370;47.712;9.082;2023-10-09T13:21:44;16.57;;;5.43;;
6667;SDS011;3370;47.712;9.082;2023-10-09T13:24:11;27.43;;;5.93;;
6667;SDS011;3370;47.712;9.082;2023-10-09T13:26:45;25.20;;;6.50;;
6667;SDS011;3370;47.712;9.082;2023-10-09T13:29:16;17.37;;;6.60;;
6667;SDS011;3370;47.712;9.082;2023-10-09T13:31:47;26.17;;;6.07;;
6667;SDS011;3370;47.712;9.082;2023-10-09T13:34:16;12.60;;;4.93;;
6667;SDS011;3370;47.712;9.082;2023-10-09T13:36:42;23.80;;;5.57;;
6667;SDS011;3370;47.712;9.082;2023-10-09T13:39:23;19.80;;;5.87;;
6667;SDS011;3370;47.712;9.082;2023-10-09T13:41:53;17.80;;;5.83;;
6667;SDS011;3370;47.712;9.082;2023-10-09T13:44:30;18.07;;;5.40;;
6667;SDS011;3370;47.712;9.082;2023-10-09T13:46:58;18.23;;;5.83;;
6667;SDS011;3370;47.712;9.082;2023-10-09T13:49:26;24.57;;;6.63;;
6667;SDS011;3370;47.712;9.082;2023-10-09T13:51:56;19.13;;;6.33;;
6667;SDS011;3370;47.712;9.082;2023-10-09T13:54:26;23.67;;;5.90;;
6667;SDS011;3370;47.712;9.082;2023-10-09T13:56:58;17.63;;;5.73;;
6667;SDS011;3370;47.712;9.082;2023-10-09T13:59:25;23.83;;;5.30;;
6667;SDS011;3370;47.712;9.082;2023-10-09T14:01:51;21.00;;;5.97;;
6667;SDS011;3370;47.712;9.082;2023-10-09T14:04:20;16.67;;;6.10;;
6667;SDS011;3370;47.712;9.082;2023-10-09T14:06:48;17.40;;;5.40;;
6667;SDS011;3370;47.712;9.082;2023-10-09T14:09:16;15.50;;;5.30;;
6667;SDS011;3370;47.712;9.082;2023-10-09T14:12:03;16.50;;;4.37;;
6667;SDS011;3370;47.712;9.082;2023-10-09T14:14:37;25.53;;;6.13;;
6667;SDS011;3370;47.712;9.082;2023-10-09T14:17:12;20.10;;;6.07;;
6667;SDS011;3370;47.712;9.082;2023-10-09T14:19:46;20.17;;;5.77;;
6667;SDS011;3370;47.712;9.082;2023-10-09T14:22:15;15.50;;;5.07;;
6667;SDS011;3370;47.712;9.082;2023-10-09T14:24:50;23.20;;;5.70;;
6667;SDS011;3370;47.712;9.082;2023-10-09T14:27:23;21.00;;;5.50;;
6667;SDS011;3370;47.712;9.082;2023-10-09T14:29:52;17.33;;;5.50;;
6667;SDS011;3370;47.712;9.082;2023-10-09T14:32:24;15.93;;;5.30;;
6667;SDS011;3370;47.712;9.082;2023-10-09T14:34:54;20.10;;;6.33;;
6667;SDS011;3370;47.712;9.082;2023-10-09T14:37:25;15.80;;;5.27;;
6667;SDS011;3370;47.712;9.082;2023-10-09T14:39:52;10.07;;;4.83;;
6667;SDS011;3370;47.712;9.082;2023-10-09T14:42:20;15.50;;;5.03;;
6667;SDS011;3370;47.712;9.082;2023-10-09T14:44:48;15.17;;;5.07;;
6667;SDS011;3370;47.712;9.082;2023-10-09T14:47:15;17.07;;;4.57;;
6667;SDS011;3370;47.712;9.082;2023-10-09T14:49:41;14.43;;;4.60;;
6667;SDS011;3370;47.712;9.082;2023-10-09T14:52:11;17.00;;;5.70;;
6667;SDS011;3370;47.712;9.082;2023-10-09T14:54:45;12.07;;;5.40;;
6667;SDS011;3370;47.712;9.082;2023-10-09T14:57:12;21.97;;;5.27;;
6667;SDS011;3370;47.712;9.082;2023-10-09T14:59:39;25.00;;;4.90;;
6667;SDS011;3370;47.712;9.082;2023-10-09T15:02:05;22.13;;;6.30;;
6667;SDS011;3370;47.712;9.082;2023-10-09T15:04:32;31.37;;;6.60;;
6667;SDS011;3370;47.712;9.082;2023-10-09T15:07:01;25.03;;;5.80;;
6667;SDS011;3370;47.712;9.082;2023-10-09T15:09:36;19.77;;;5.70;;
6667;SDS011;3370;47.712;9.082;2023-10-09T15:12:05;11.67;;;5.70;;
6667;SDS011;3370;47.712;9.082;2023-10-09T15:14:31;20.20;;;5.40;;
6667;SDS011;3370;47.712;9.082;2023-10-09T15:16:57;22.43;;;5.97;;
6667;SDS011;3370;47.712;9.082;2023-10-09T15:19:23;34.83;;;5.40;;
6667;SDS011;3370;47.712;9.082;2023-10-09T15:21:54;20.33;;;6.10;;
6667;SDS011;3370;47.712;9.082;2023-10-09T15:24:23;21.03;;;6.60;;
6667;SDS011;3370;47.712;9.082;2023-10-09T15:26:50;27.63;;;6.13;;
6667;SDS011;3370;47.712;9.082;2023-10-09T15:29:22;29.63;;;6.77;;
6667;SDS011;3370;47.712;9.082;2023-10-09T15:31:57;22.93;;;7.17;;
6667;SDS011;3370;47.712;9.082;2023-10-09T15:34:30;28.00;;;7.40;;
6667;SDS011;3370;47.712;9.082;2023-10-09T15:37:02;23.30;;;7.33;;
6667;SDS011;3370;47.712;9.082;2023-10-09T15:39:35;25.20;;;7.43;;
6667;SDS011;3370;47.712;9.082;2023-10-09T15:42:01;21.97;;;7.03;;
6667;SDS011;3370;47.712;9.082;2023-10-09T15:44:31;35.77;;;8.23;;
6667;SDS011;3370;47.712;9.082;2023-10-09T15:47:01;19.67;;;6.23;;
6667;SDS011;3370;47.712;9.082;2023-10-09T15:49:33;26.67;;;6.17;;
6667;SDS011;3370;47.712;9.082;2023-10-09T15:52:02;23.40;;;6.47;;
6667;SDS011;3370;47.712;9.082;2023-10-09T15:54:28;22.97;;;6.20;;
6667;SDS011;3370;47.712;9.082;2023-10-09T15:56:55;23.20;;;6.03;;
6667;SDS011;3370;47.712;9.082;2023-10-09T15:59:25;15.70;;;5.90;;
6667;SDS011;3370;47.712;9.082;2023-10-09T16:01:50;19.37;;;6.60;;
6667;SDS011;3370;47.712;9.082;2023-10-09T16:04:18;16.57;;;6.00;;
6667;SDS011;3370;47.712;9.082;2023-10-09T16:06:43;17.30;;;7.20;;
6667;SDS011;3370;47.712;9.082;2023-10-09T16:09:09;14.03;;;5.60;;
6667;SDS011;3370;47.712;9.082;2023-10-09T16:11:46;16.40;;;6.13;;
6667;SDS011;3370;47.712;9.082;2023-10-09T16:14:12;22.03;;;6.73;;
6667;SDS011;3370;47.712;9.082;2023-10-09T16:16:40;19.53;;;6.73;;
6667;SDS011;3370;47.712;9.082;2023-10-09T16:19:09;25.03;;;6.30;;